KFSD/FSD METAR and TAF weather

Enter ICAO airport designator
Station Type Date Time Source
KFSD METAR 2020/07/06 08:56 UTC NOAA

KFSD 060856Z AUTO 10008KT 10SM TS FEW033 SCT041 BKN050 23/20 A2998 RMK AO2 LTG DSNT NW-E RAB28E50 TSE0759B33 SLP140 P0006 60006 T02280200 55003


Station Type Date Time Source
KFSD Decoded METAR 2020/07/06 08:56 UTC NOAA

SIOUX FALLS FOSS FIELD, SD, United States (KFSD) 43-35N 096-45W 434M
Jul 06, 2020 - 04:56 AM EDT / 2020.07.06 0856 UTC
Wind: from the E (100 degrees) at 9 MPH (8 KT):0
Visibility: 10 mile(s):0
Sky conditions: mostly cloudy
Weather: thunder; Lightning observed
Precipitation last hour: 0.06 inches
Temperature: 73.0 F (22.8 C)
Dew Point: 68.0 F (20.0 C)
Relative Humidity: 84%
Pressure (altimeter): 29.98 in. Hg (1015 hPa)
Pressure tendency: 0.01 inches (0.3 hPa) lower than three hours ago
ob: KFSD 060856Z AUTO 10008KT 10SM TS FEW033 SCT041 BKN050 23/20 A2998 RMK AO2 LTG DSNT NW-E RAB28E50 TSE0759B33 SLP140 P0006 60006 T02280200 55003
cycle: 9

Station Type Date Time Source
KFSD TAF 2020/07/06 06:22 UTC NOAA

TAF KFSD 060520Z 0606/0706 19008KT P6SM SCT100
FM061100 20006KT P6SM VCSH BKN050
FM061400 21007KT P6SM SCT050
FM061800 19012KT P6SM SCT070

Example: see airport list